Pacific Palisades, CA

2:24 AM PST on December 22, 2014 (GMT -0800)
PACIFIC PALISADES MARQUEZ KNOLLS | Change Station
CLOSE
Current Station
Personal Weather Station
Location: Los Angeles, CA
Elevation: 354 ft
Nearby Weather Stations

Elev 354 ft 34.05 °N, 118.55 °W | Updated 7 minutes ago

Clear
Clear
55.2 °F
Feels Like 55.2 °F
N
0.0
Wind Variable Wind from ESE

Today
High -- | Low -- °F
--% Chance of Precip.
Yesterday
High -- | Low -- °F
Precip. -- in
6:56 AM 4:49 PM
New Moon, 0% visible
Pressure 30.03 in
Visibility 4.0 miles
Clouds Clear
Dew Point 54 °F
Humidity 97%
Rainfall 0.00 in
Snow Depth Not available.
UV 0 out of 12
Pollen 4.40 out of 12
Air Quality Not available.
Flu Activity Not available.
METAR KSMO 220951Z AUTO 00000KT 4SM BR CLR 13/11 A3003 RMK AO2 SLP169 T01280106 $

More Conditions Fewer Conditions

Pressure 30.03 in
Visibility 4.0 miles
Clouds Clear
Dew Point 54 °F
Humidity 97%
Rainfall 0.00 in
Snow Depth Not available.
UV 0 out of 12
Pollen 4.40 out of 12
Air Quality Not available.
Flu Activity Not available.
METAR KSMO 220951Z AUTO 00000KT 4SM BR CLR 13/11 A3003 RMK AO2 SLP169 T01280106 $

More Conditions Fewer Conditions

10-Day Weather Forecast

Almanac

Astronomy

Dec. 22, 2014 Rise Set
Actual Time
Civil Twilight
Nautical Twilight
Astronomical Twilight
Moon
Length of Visible Light
Length of Day
Tomorrow will be .
, % of the Moon is Illuminated

Today's Extremes

State Highs State Lows

Community

WunderPhotos

Upload Photos

1,779,583 photos uploaded!

WunderBlogs® & News

Nearby

Air Quality

  Air Quality AQ Index Pollutant
Not available.

Snow Depth

Station Depth Elevation

Earthquake Activity

City Distance Mag. Time & Date
Minimum magnitude displayed is 2.5.

Coastal Water Temperatures

Place Temperature

Nearby Weather Stations